Time;durP1;ratioP1;P1;durP2;ratioP2;P2;SDS_P1;SDS_P2;PMS_P1;PMS_P2;Temp;Humidity;BMP_temperature;BMP_pressure;BME280_temperature;BME280_humidity;BME280_pressure;Samples;Min_cycle;Max_cycle;Signal;HPM_P1;HPM_P2
2021/03/25 00:00:15;;;;;;;69.78;33.05;;;7.40;99.90;;;;;;5094221;28;20024;-70
2021/03/25 00:02:41;;;;;;;63.40;31.48;;;7.40;99.90;;;;;;5094132;28;20032;-71
2021/03/25 00:05:09;;;;;;;68.65;32.63;;;7.40;99.90;;;;;;5094058;28;20070;-70
2021/03/25 00:07:34;;;;;;;55.25;31.25;;;7.40;99.90;;;;;;5094744;28;20039;-70
2021/03/25 00:10:00;;;;;;;66.50;32.03;;;7.40;99.90;;;;;;5094933;28;20024;-70
2021/03/25 00:12:26;;;;;;;67.00;32.65;;;7.40;99.90;;;;;;5092975;28;20020;-70
2021/03/25 00:14:51;;;;;;;72.45;32.35;;;7.40;99.90;;;;;;5094298;28;20016;-70
2021/03/25 00:17:17;;;;;;;68.68;34.03;;;7.40;99.90;;;;;;5107982;28;20467;-70
2021/03/25 00:19:42;;;;;;;67.55;34.55;;;7.40;99.90;;;;;;5094186;28;20028;-70
2021/03/25 00:22:10;;;;;;;73.63;33.95;;;8.10;99.90;;;;;;5094025;28;20399;-69
2021/03/25 00:24:36;;;;;;;75.55;33.65;;;7.40;99.90;;;;;;5093762;28;20044;-69
2021/03/25 00:27:02;;;;;;;70.88;31.85;;;7.40;99.90;;;;;;5093861;28;20058;-69
2021/03/25 00:29:27;;;;;;;69.65;34.60;;;7.50;99.90;;;;;;5107878;28;20016;-70
2021/03/25 00:31:53;;;;;;;65.72;33.42;;;7.50;99.90;;;;;;5093154;28;20031;-70
2021/03/25 00:34:18;;;;;;;67.90;33.05;;;7.60;99.90;;;;;;5093647;28;20031;-69
2021/03/25 00:36:44;;;;;;;66.22;33.97;;;7.60;99.90;;;;;;5094085;28;20032;-70
2021/03/25 00:39:11;;;;;;;58.63;31.98;;;7.50;99.90;;;;;;5095620;28;20031;-71
2021/03/25 00:41:37;;;;;;;65.75;32.40;;;7.60;99.90;;;;;;5107182;28;20544;-69
2021/03/25 00:44:07;;;;;;;71.88;33.55;;;7.60;99.90;;;;;;5093808;28;20111;-70
2021/03/25 00:46:34;;;;;;;71.90;34.92;;;7.50;99.90;;;;;;5093274;28;20025;-70
2021/03/25 00:49:01;;;;;;;65.80;32.85;;;7.50;99.90;;;;;;5093964;28;20151;-70
2021/03/25 00:51:27;;;;;;;73.57;34.05;;;7.40;99.90;;;;;;5092555;28;20384;-70
2021/03/25 00:53:53;;;;;;;79.25;33.88;;;7.40;99.90;;;;;;5093464;28;20035;-69
2021/03/25 00:56:18;;;;;;;72.43;33.10;;;7.50;99.90;;;;;;5092963;28;20028;-69
2021/03/25 00:58:44;;;;;;;67.00;34.17;;;7.40;99.90;;;;;;5092911;28;20028;-71
2021/03/25 01:01:09;;;;;;;71.25;34.83;;;7.40;99.90;;;;;;5096117;28;20026;-71
2021/03/25 01:03:38;;;;;;;78.95;34.80;;;7.40;99.90;;;;;;5093507;28;20102;-70
2021/03/25 01:06:03;;;;;;;77.00;35.35;;;7.30;99.90;;;;;;5092925;28;20031;-70
2021/03/25 01:08:30;;;;;;;74.07;33.50;;;7.30;99.90;;;;;;5093098;28;20020;-70
2021/03/25 01:11:01;;;;;;;74.60;35.88;;;7.40;99.90;;;;;;5093337;28;20099;-70
2021/03/25 01:13:31;;;;;;;75.50;36.50;;;7.30;99.90;;;;;;5092539;28;20031;-71
2021/03/25 01:15:58;;;;;;;74.32;37.40;;;7.30;99.90;;;;;;5093066;28;20048;-70
2021/03/25 01:18:24;;;;;;;70.15;34.67;;;7.30;99.90;;;;;;5092890;28;20043;-71
2021/03/25 01:20:50;;;;;;;76.80;35.15;;;7.30;99.90;;;;;;5092648;28;20119;-71
2021/03/25 01:23:16;;;;;;;83.32;38.35;;;7.20;99.90;;;;;;5092517;28;20114;-71
2021/03/25 01:25:43;;;;;;;74.28;35.95;;;7.20;99.90;;;;;;5092932;28;20024;-70
2021/03/25 01:28:11;;;;;;;73.35;36.22;;;7.20;99.90;;;;;;5099235;28;20705;-70
2021/03/25 01:30:38;;;;;;;73.95;36.70;;;7.20;99.90;;;;;;5099634;28;20024;-70
2021/03/25 01:33:06;;;;;;;80.88;36.72;;;7.10;99.90;;;;;;5092547;28;20374;-70
2021/03/25 01:35:33;;;;;;;70.43;33.47;;;7.10;99.90;;;;;;5097715;28;20024;-70
2021/03/25 01:37:59;;;;;;;72.57;36.25;;;7.10;99.90;;;;;;5092687;28;20035;-70
2021/03/25 01:40:43;;;;;;;79.90;37.97;;;7.10;99.90;;;;;;5092488;28;20016;-70
2021/03/25 01:43:26;;;;;;;78.95;37.70;;;7.00;99.90;;;;;;5092248;28;20038;-70
2021/03/25 01:46:00;;;;;;;76.63;34.42;;;7.00;99.90;;;;;;5092727;28;20016;-70
2021/03/25 01:48:30;;;;;;;76.93;36.78;;;7.00;99.90;;;;;;5092072;28;20392;-70
2021/03/25 01:51:12;;;;;;;80.90;38.30;;;6.90;99.90;;;;;;5091496;28;20029;-71
2021/03/25 01:54:08;;;;;;;74.32;36.20;;;6.90;99.90;;;;;;5092652;28;20020;-70
2021/03/25 01:56:45;;;;;;;75.80;37.53;;;6.90;99.90;;;;;;5091653;28;20078;-71
2021/03/25 01:59:20;;;;;;;81.03;36.67;;;6.90;99.90;;;;;;5092240;28;20043;-71
2021/03/25 02:01:50;;;;;;;85.95;38.92;;;6.90;99.90;;;;;;5092139;28;20020;-70
2021/03/25 02:04:19;;;;;;;71.88;35.05;;;6.90;99.90;;;;;;5091585;28;20106;-69
2021/03/25 02:07:09;;;;;;;76.68;38.05;;;6.90;99.90;;;;;;5092316;28;20016;-69
2021/03/25 02:09:40;;;;;;;75.93;37.83;;;6.90;99.90;;;;;;5091582;28;20031;-69
2021/03/25 02:12:27;;;;;;;72.60;36.47;;;6.90;99.90;;;;;;5091786;28;20460;-71
2021/03/25 02:15:20;;;;;;;83.22;38.83;;;6.90;99.90;;;;;;5092081;28;20093;-71
2021/03/25 02:17:59;;;;;;;75.82;36.88;;;7.00;99.90;;;;;;5091533;28;20064;-70
2021/03/25 02:20:54;;;;;;;85.72;39.00;;;6.90;99.90;;;;;;5108333;28;20016;-70
2021/03/25 02:23:38;;;;;;;84.47;39.33;;;6.90;99.90;;;;;;5098143;28;20053;-70
2021/03/25 02:26:06;;;;;;;75.97;38.33;;;6.90;99.90;;;;;;5091577;28;20043;-71
2021/03/25 02:29:14;;;;;;;82.97;38.58;;;6.80;99.90;;;;;;5102484;28;20035;-70
2021/03/25 02:31:42;;;;;;;74.28;36.88;;;6.80;99.90;;;;;;5091349;28;20020;-69
2021/03/25 02:34:15;;;;;;;80.45;37.78;;;6.80;99.90;;;;;;5091175;28;20024;-70
2021/03/25 02:36:44;;;;;;;73.22;37.50;;;6.80;99.90;;;;;;5091777;28;20119;-70
2021/03/25 02:39:17;;;;;;;88.20;38.53;;;6.80;99.90;;;;;;5090788;28;20349;-71
2021/03/25 02:41:47;;;;;;;83.88;37.15;;;6.90;99.90;;;;;;5092132;28;20104;-70
2021/03/25 02:44:36;;;;;;;80.82;38.40;;;6.90;99.90;;;;;;5091297;28;20032;-70
2021/03/25 02:47:10;;;;;;;79.38;38.03;;;7.00;99.90;;;;;;5092238;28;20036;-70
2021/03/25 02:49:45;;;;;;;84.55;39.03;;;7.00;99.90;;;;;;5091910;28;20025;-70
2021/03/25 02:52:22;;;;;;;88.78;39.58;;;7.00;99.90;;;;;;5090865;28;20471;-71
2021/03/25 02:54:49;;;;;;;81.18;37.17;;;7.00;99.90;;;;;;5100196;28;20512;-69
2021/03/25 02:57:33;;;;;;;81.63;38.13;;;7.10;99.90;;;;;;5111947;28;20035;-71
2021/03/25 03:00:08;;;;;;;87.30;40.67;;;7.10;99.90;;;;;;5108943;28;20020;-71
2021/03/25 03:02:38;;;;;;;75.65;39.25;;;7.20;99.90;;;;;;5094287;28;20559;-71
2021/03/25 03:05:12;;;;;;;86.07;40.38;;;7.20;99.90;;;;;;5102016;28;20020;-71
2021/03/25 03:07:46;;;;;;;87.82;41.72;;;7.20;99.90;;;;;;5091325;28;20024;-70
2021/03/25 03:10:18;;;;;;;84.55;39.22;;;7.20;99.90;;;;;;5091201;28;20107;-70
2021/03/25 03:12:47;;;;;;;100.88;43.35;;;7.20;99.90;;;;;;5105339;28;20374;-70
2021/03/25 03:15:27;;;;;;;88.93;42.30;;;7.30;99.90;;;;;;5091120;28;20048;-70
2021/03/25 03:18:07;;;;;;;95.75;42.63;;;7.30;99.90;;;;;;5091603;28;20032;-70
2021/03/25 03:20:39;;;;;;;88.97;42.55;;;7.30;99.90;;;;;;5090949;28;20028;-70
2021/03/25 03:23:05;;;;;;;90.93;44.00;;;7.30;99.90;;;;;;5091321;28;20095;-70
2021/03/25 03:25:30;;;;;;;95.93;44.85;;;7.40;99.90;;;;;;5091402;28;20074;-70
2021/03/25 03:28:19;;;;;;;95.85;43.42;;;7.40;99.90;;;;;;5091464;28;20024;-70
2021/03/25 03:31:08;;;;;;;103.90;43.25;;;7.40;99.90;;;;;;5101582;28;20073;-70
2021/03/25 03:33:43;;;;;;;94.70;43.47;;;7.50;99.90;;;;;;5090780;28;20483;-70
2021/03/25 03:36:19;;;;;;;103.13;42.65;;;7.50;99.90;;;;;;5090969;28;20032;-71
2021/03/25 03:39:10;;;;;;;91.72;43.55;;;7.50;99.90;;;;;;5091265;28;20513;-70
2021/03/25 03:41:43;;;;;;;92.78;42.05;;;7.50;99.90;;;;;;5091000;28;20043;-70
2021/03/25 03:44:13;;;;;;;94.75;43.85;;;7.50;99.90;;;;;;5092654;28;20471;-70
2021/03/25 03:46:43;;;;;;;96.70;44.35;;;7.50;99.90;;;;;;5095547;28;20016;-70
2021/03/25 03:49:22;;;;;;;96.30;44.63;;;7.50;99.90;;;;;;5094128;28;20051;-70
2021/03/25 03:52:11;;;;;;;89.97;44.17;;;7.60;99.90;;;;;;5094784;28;20088;-69
2021/03/25 03:54:38;;;;;;;96.63;43.08;;;7.60;99.90;;;;;;5094403;28;20475;-70
2021/03/25 03:57:14;;;;;;;91.88;41.60;;;7.60;99.90;;;;;;5096709;28;20028;-71
2021/03/25 03:59:57;;;;;;;96.85;43.10;;;7.60;99.90;;;;;;5115222;28;20019;-71
2021/03/25 04:02:35;;;;;;;86.10;41.13;;;7.60;99.90;;;;;;5113094;28;20019;-71
2021/03/25 04:05:12;;;;;;;102.05;43.88;;;7.50;99.90;;;;;;5103750;28;20039;-71
2021/03/25 04:07:42;;;;;;;98.28;43.90;;;7.60;99.90;;;;;;5094520;28;20024;-71
2021/03/25 04:10:18;;;;;;;103.70;44.95;;;7.60;99.90;;;;;;5093617;28;20016;-71
2021/03/25 04:12:48;;;;;;;104.78;44.17;;;7.60;99.90;;;;;;5094363;28;20360;-69
2021/03/25 04:15:33;;;;;;;100.07;42.20;;;7.60;99.90;;;;;;5094017;28;20036;-70
2021/03/25 04:18:19;;;;;;;91.95;44.65;;;7.60;99.90;;;;;;5097712;28;20063;-70
2021/03/25 04:20:49;;;;;;;91.05;42.00;;;7.60;99.90;;;;;;5114354;28;20493;-70
2021/03/25 04:23:18;;;;;;;95.55;44.22;;;7.60;99.90;;;;;;5113622;28;20024;-70
2021/03/25 04:26:00;;;;;;;100.38;43.95;;;7.60;99.90;;;;;;5114727;28;20163;-69
2021/03/25 04:28:40;;;;;;;94.65;43.97;;;7.50;99.90;;;;;;5093725;28;20017;-70
2021/03/25 04:31:08;;;;;;;89.55;43.67;;;7.60;99.90;;;;;;5092916;28;20103;-69
2021/03/25 04:33:38;;;;;;;95.03;43.05;;;7.60;99.90;;;;;;5093952;28;20107;-71
2021/03/25 04:36:09;;;;;;;98.28;44.47;;;7.60;99.90;;;;;;5094131;28;20082;-71
2021/03/25 04:38:38;;;;;;;96.13;42.78;;;7.60;99.90;;;;;;5093369;28;20028;-71
2021/03/25 04:41:04;;;;;;;94.65;42.92;;;7.60;99.90;;;;;;5093686;28;20020;-68
2021/03/25 04:43:30;;;;;;;98.47;42.60;;;7.60;99.90;;;;;;5093176;28;20045;-70
2021/03/25 04:46:02;;;;;;;98.82;45.45;;;7.60;99.90;;;;;;5093667;28;20503;-69
2021/03/25 04:48:33;;;;;;;95.40;43.55;;;7.60;99.90;;;;;;5093638;28;20035;-70
2021/03/25 04:51:07;;;;;;;94.53;42.97;;;7.60;99.90;;;;;;5093601;28;20028;-69
2021/03/25 04:53:35;;;;;;;93.93;41.78;;;7.60;99.90;;;;;;5093349;28;20602;-71
2021/03/25 04:56:03;;;;;;;90.03;42.53;;;7.60;99.90;;;;;;5093645;28;20032;-71
2021/03/25 04:58:52;;;;;;;92.40;42.80;;;7.60;99.90;;;;;;5091988;28;20084;-70
2021/03/25 05:01:21;;;;;;;84.78;40.47;;;7.60;99.90;;;;;;5105935;28;20023;-71
2021/03/25 05:03:48;;;;;;;87.55;40.17;;;7.60;99.90;;;;;;5109000;28;20070;-70
2021/03/25 05:06:39;;;;;;;90.53;40.67;;;7.50;99.90;;;;;;5092562;28;20016;-71
2021/03/25 05:09:04;;;;;;;;;;;7.50;99.90;;;;;;5084994;28;20035;-71
2021/03/25 05:11:30;;;;;;;88.32;40.25;;;7.60;99.90;;;;;;5113751;28;19904;-72
2021/03/25 05:13:58;;;;;;;90.15;41.33;;;7.50;99.90;;;;;;5113137;28;20104;-71
2021/03/25 05:16:43;;;;;;;83.68;40.47;;;7.50;99.90;;;;;;5113207;28;20052;-71
2021/03/25 05:19:20;;;;;;;97.38;42.20;;;7.50;99.90;;;;;;5112499;28;20032;-70
2021/03/25 05:22:01;;;;;;;77.30;39.35;;;7.50;99.90;;;;;;5113755;28;20492;-71
2021/03/25 05:24:45;;;;;;;90.75;40.13;;;7.50;99.90;;;;;;5113130;28;20084;-69
2021/03/25 05:27:17;;;;;;;89.18;39.95;;;7.50;99.90;;;;;;5113170;28;20041;-71
2021/03/25 05:29:44;;;;;;;80.82;39.67;;;7.50;99.90;;;;;;5113152;28;20455;-69
2021/03/25 05:32:14;;;;;;;84.25;38.78;;;7.40;99.90;;;;;;5102447;28;20030;-70
2021/03/25 05:34:40;;;;;;;80.75;38.92;;;7.40;99.90;;;;;;5109699;28;20103;-70
2021/03/25 05:37:07;;;;;;;79.00;39.17;;;7.30;99.90;;;;;;5103302;28;20468;-69
2021/03/25 05:39:34;;;;;;;88.25;40.25;;;7.30;99.90;;;;;;5092358;28;20020;-69
2021/03/25 05:42:18;;;;;;;84.50;40.10;;;7.20;99.90;;;;;;5092341;28;20078;-69
2021/03/25 05:44:58;;;;;;;105.63;42.85;;;7.20;99.90;;;;;;5092656;28;20020;-69
2021/03/25 05:47:59;;;;;;;85.00;37.72;;;7.20;99.90;;;;;;5091926;28;20522;-69
2021/03/25 05:50:42;;;;;;;;;;;7.20;99.90;;;;;;5050130;28;20017;-70
2021/03/25 05:53:22;;;;;;;82.30;37.45;;;7.20;99.90;;;;;;5104039;28;19910;-70
2021/03/25 05:56:19;;;;;;;80.72;38.40;;;7.20;99.90;;;;;;5112282;28;20072;-70
2021/03/25 05:58:53;;;;;;;83.05;37.17;;;7.20;99.90;;;;;;5112071;28;20054;-70
2021/03/25 06:01:30;;;;;;;77.43;36.70;;;7.20;99.90;;;;;;5112356;28;20076;-70
2021/03/25 06:04:09;;;;;;;84.50;39.05;;;7.30;99.90;;;;;;5106832;28;20106;-70
2021/03/25 06:07:05;;;;;;;80.43;40.92;;;7.30;99.90;;;;;;5092370;28;20024;-70
2021/03/25 06:09:52;;;;;;;78.20;38.17;;;7.30;99.90;;;;;;5091012;28;20063;-70
2021/03/25 06:13:07;;;;;;;83.15;38.35;;;7.30;99.90;;;;;;5091644;28;20024;-70
2021/03/25 06:16:09;;;;;;;76.47;36.95;;;7.30;99.90;;;;;;5077927;28;20043;-69
2021/03/25 06:19:00;;;;;;;82.78;38.70;;;7.30;99.90;;;;;;5092132;28;20071;-70
2021/03/25 06:21:51;;;;;;;81.57;37.30;;;7.40;99.90;;;;;;5091885;28;20026;-70
2021/03/25 06:24:40;;;;;;;74.97;37.67;;;7.40;99.90;;;;;;5091207;28;20097;-71
2021/03/25 06:27:29;;;;;;;75.18;36.83;;;7.40;99.90;;;;;;5091672;28;20028;-72
2021/03/25 06:30:03;;;;;;;75.88;36.80;;;7.30;99.90;;;;;;5097201;28;20031;-70
2021/03/25 06:32:47;;;;;;;70.40;36.72;;;7.30;99.90;;;;;;5112429;28;20034;-70
2021/03/25 06:35:17;;;;;;;80.05;38.70;;;7.20;99.90;;;;;;5112139;28;20019;-71
2021/03/25 06:37:54;;;;;;;72.47;37.25;;;7.30;99.90;;;;;;5111563;28;20061;-70
2021/03/25 06:40:31;;;;;;;81.95;37.22;;;7.20;99.90;;;;;;5111828;28;20020;-70
2021/03/25 06:43:09;;;;;;;79.40;38.03;;;7.30;99.90;;;;;;5107038;28;20153;-69
2021/03/25 06:45:44;;;;;;;76.82;39.33;;;7.30;99.90;;;;;;5102590;28;20024;-70
2021/03/25 06:48:23;;;;;;;82.10;40.15;;;7.40;99.90;;;;;;5091285;28;20024;-71
2021/03/25 06:50:51;;;;;;;82.30;39.15;;;7.50;99.90;;;;;;5090689;28;20029;-71
2021/03/25 06:53:27;;;;;;;79.70;38.15;;;7.50;99.90;;;;;;5105316;28;20522;-71
2021/03/25 06:56:02;;;;;;;78.65;39.92;;;7.60;99.90;;;;;;5110327;28;20015;-71
2021/03/25 06:58:53;;;;;;;75.38;38.65;;;7.70;99.90;;;;;;5108791;28;20399;-70
2021/03/25 07:01:22;;;;;;;72.57;38.40;;;7.80;99.90;;;;;;5083084;28;20028;-69
2021/03/25 07:03:53;;;;;;;77.30;37.03;;;8.00;99.90;;;;;;5095994;28;20036;-71
2021/03/25 07:06:20;;;;;;;80.32;37.78;;;8.00;99.90;;;;;;5090276;28;20119;-71
2021/03/25 07:08:48;;;;;;;82.10;40.17;;;8.20;99.90;;;;;;5091207;28;20490;-70
2021/03/25 07:11:18;;;;;;;78.47;38.03;;;8.30;99.90;;;;;;5090330;28;20028;-71
2021/03/25 07:13:58;;;;;;;76.82;36.63;;;8.80;99.90;;;;;;5090878;28;20062;-71
2021/03/25 07:16:24;;;;;;;72.25;35.40;;;8.40;99.90;;;;;;5090588;28;20119;-70
2021/03/25 07:19:13;;;;;;;76.50;38.28;;;8.50;99.90;;;;;;5090419;28;20128;-70
2021/03/25 07:21:44;;;;;;;70.25;36.55;;;8.60;99.90;;;;;;5101421;28;20047;-70
2021/03/25 07:24:25;;;;;;;70.40;35.72;;;8.60;99.90;;;;;;5095790;28;20094;-70
2021/03/25 07:27:09;;;;;;;68.28;35.67;;;8.70;99.90;;;;;;5099683;28;20028;-70
2021/03/25 07:29:37;;;;;;;68.20;36.97;;;8.80;99.90;;;;;;5111185;28;20103;-71
2021/03/25 07:32:06;;;;;;;65.35;35.22;;;8.90;99.90;;;;;;5109708;28;20020;-70
2021/03/25 07:34:45;;;;;;;75.18;37.28;;;8.90;99.90;;;;;;5093234;28;20035;-70
2021/03/25 07:37:17;;;;;;;72.45;36.17;;;9.00;99.90;;;;;;5093807;28;20460;-70
2021/03/25 07:39:49;;;;;;;72.65;37.67;;;9.10;99.90;;;;;;5109272;28;20095;-71
2021/03/25 07:42:27;;;;;;;74.38;36.38;;;9.10;99.90;;;;;;5112434;28;20035;-70
2021/03/25 07:44:53;;;;;;;68.85;35.78;;;9.10;99.90;;;;;;5098235;28;20054;-73
2021/03/25 07:47:30;;;;;;;68.90;36.10;;;9.20;99.90;;;;;;5106949;28;20483;-73
2021/03/25 07:50:18;;;;;;;75.50;33.90;;;9.20;99.90;;;;;;5110560;28;20024;-73
2021/03/25 07:52:44;;;;;;;66.80;35.90;;;9.30;99.90;;;;;;5112894;27;20020;-72
2021/03/25 07:55:18;;;;;;;62.08;34.05;;;9.40;99.90;;;;;;5110067;28;20361;-73
2021/03/25 07:57:45;;;;;;;70.80;34.42;;;9.50;99.90;;;;;;5114268;28;20036;-73
2021/03/25 08:00:14;;;;;;;67.38;34.55;;;9.50;99.90;;;;;;5102660;28;20046;-73
2021/03/25 08:02:43;;;;;;;59.08;34.28;;;9.50;99.90;;;;;;5114899;28;20019;-75
2021/03/25 08:05:14;;;;;;;68.00;33.38;;;9.50;99.90;;;;;;5106216;28;20016;-73
2021/03/25 08:07:41;;;;;;;63.78;33.03;;;9.50;99.90;;;;;;5096404;28;20047;-73
2021/03/25 08:10:20;;;;;;;64.07;33.55;;;9.40;99.90;;;;;;5108116;28;20043;-73
2021/03/25 08:12:46;;;;;;;61.15;32.55;;;9.50;99.90;;;;;;5109128;28;20081;-74
2021/03/25 08:15:33;;;;;;;68.85;34.65;;;9.50;99.90;;;;;;5100837;28;20048;-73
2021/03/25 08:18:20;;;;;;;64.45;33.33;;;9.50;99.90;;;;;;5094379;28;20081;-74
2021/03/25 08:21:01;;;;;;;61.30;32.53;;;9.60;99.90;;;;;;5094386;28;20038;-75
2021/03/25 08:24:05;;;;;;;60.42;32.05;;;9.70;99.90;;;;;;5103969;28;20027;-74
2021/03/25 08:26:55;;;;;;;61.42;31.73;;;9.80;99.90;;;;;;5103422;28;20095;-76
2021/03/25 08:29:26;;;;;;;61.13;32.63;;;9.80;99.90;;;;;;5096679;28;20035;-76
2021/03/25 08:32:10;;;;;;;60.17;31.77;;;10.00;99.90;;;;;;5093727;28;20032;-76
2021/03/25 08:34:57;;;;;;;59.58;31.90;;;10.10;99.90;;;;;;5109108;28;20487;-75
2021/03/25 08:37:40;;;;;;;69.20;34.30;;;10.20;99.90;;;;;;5098057;28;20047;-75
2021/03/25 08:40:28;;;;;;;61.85;29.05;;;10.30;99.90;;;;;;5101930;28;20020;-75
2021/03/25 08:42:59;;;;;;;72.95;31.13;;;10.40;99.90;;;;;;5101546;28;20024;-76
2021/03/25 08:45:30;;;;;;;53.50;29.85;;;10.40;99.90;;;;;;5103147;28;20020;-75
2021/03/25 08:48:21;;;;;;;53.33;29.98;;;10.50;99.90;;;;;;5107604;28;20023;-75
2021/03/25 08:50:59;;;;;;;51.10;28.42;;;10.50;99.90;;;;;;5105015;28;20023;-75
2021/03/25 08:53:37;;;;;;;49.67;28.90;;;10.50;99.90;;;;;;5095983;28;20049;-75
2021/03/25 08:56:17;;;;;;;51.10;27.35;;;10.50;99.90;;;;;;5106744;28;20489;-70
2021/03/25 08:58:44;;;;;;;51.33;29.00;;;10.40;99.90;;;;;;5094022;28;20043;-73
2021/03/25 09:01:15;;;;;;;54.58;28.83;;;10.50;99.90;;;;;;5109320;28;20106;-74
2021/03/25 09:03:46;;;;;;;53.10;30.20;;;10.50;99.90;;;;;;5098949;28;20035;-74
2021/03/25 09:06:17;;;;;;;;;;;10.50;99.90;;;;;;5093243;28;20027;-71
2021/03/25 09:08:56;;;;;;;42.60;25.10;;;10.60;99.90;;;;;;5093483;28;20310;-74
2021/03/25 09:11:21;;;;;;;44.63;25.30;;;10.60;99.90;;;;;;5100049;28;20024;-73
2021/03/25 09:13:56;;;;;;;49.65;27.38;;;10.60;99.90;;;;;;5113796;28;20096;-73
2021/03/25 09:16:49;;;;;;;43.97;26.42;;;10.50;99.90;;;;;;5113377;28;20051;-74
2021/03/25 09:19:26;;;;;;;41.92;22.88;;;10.50;99.90;;;;;;5104004;28;20071;-74
2021/03/25 09:21:52;;;;;;;43.40;24.83;;;10.60;99.90;;;;;;5099049;28;20035;-75
2021/03/25 09:24:17;;;;;;;33.70;22.40;;;10.70;99.90;;;;;;5103565;28;20020;-73
2021/03/25 09:26:48;;;;;;;37.47;22.45;;;10.80;99.90;;;;;;5100077;28;20471;-74
2021/03/25 09:29:15;;;;;;;;;;;10.90;99.90;;;;;;5099671;28;20055;-73
2021/03/25 09:32:02;;;;;;;24.13;16.90;;;10.80;99.90;;;;;;5103277;28;19919;-74
2021/03/25 09:34:43;;;;;;;25.20;17.85;;;10.80;99.90;;;;;;5104295;28;20095;-73
2021/03/25 09:37:26;;;;;;;26.73;18.52;;;10.80;99.90;;;;;;5106215;28;20028;-74
2021/03/25 09:40:11;;;;;;;21.58;15.93;;;10.80;99.90;;;;;;5093552;28;20093;-74
2021/03/25 09:42:36;;;;;;;21.92;16.75;;;10.70;99.90;;;;;;5096363;28;20095;-73
2021/03/25 09:45:19;;;;;;;22.13;16.00;;;10.70;99.90;;;;;;5093622;28;20073;-73
2021/03/25 09:47:55;;;;;;;21.90;16.10;;;10.70;99.90;;;;;;5107109;28;20100;-73
2021/03/25 09:50:23;;;;;;;21.58;16.02;;;10.70;99.90;;;;;;5097345;28;20024;-73
2021/03/25 09:53:16;;;;;;;24.70;17.70;;;10.70;99.90;;;;;;5102237;28;20020;-74
2021/03/25 09:56:02;;;;;;;25.17;17.67;;;10.70;99.90;;;;;;5103306;28;20057;-74
2021/03/25 09:58:39;;;;;;;25.42;17.48;;;10.80;99.90;;;;;;5104195;28;20027;-75
2021/03/25 10:01:07;;;;;;;28.75;18.75;;;10.80;99.90;;;;;;5108305;28;20027;-75
2021/03/25 10:03:58;;;;;;;28.17;18.98;;;10.80;99.90;;;;;;5099796;28;20114;-74
2021/03/25 10:06:57;;;;;;;31.17;19.95;;;10.80;99.90;;;;;;5091560;28;20111;-74
2021/03/25 10:09:47;;;;;;;40.67;23.80;;;10.80;99.90;;;;;;5091632;28;20035;-75
2021/03/25 10:12:14;;;;;;;39.67;23.33;;;10.80;99.90;;;;;;5091400;28;20027;-75
2021/03/25 10:14:53;;;;;;;42.38;24.15;;;10.80;99.90;;;;;;5090848;28;20111;-74
2021/03/25 10:17:47;;;;;;;42.03;24.95;;;10.90;99.90;;;;;;5090885;28;20119;-75
2021/03/25 10:20:51;;;;;;;44.50;24.45;;;10.90;99.90;;;;;;5092776;28;20024;-74
2021/03/25 10:23:19;;;;;;;44.13;25.30;;;10.80;99.90;;;;;;5091720;28;20060;-75
2021/03/25 10:25:47;;;;;;;45.22;25.15;;;10.70;99.90;;;;;;5092002;28;20035;-75
2021/03/25 10:28:14;;;;;;;49.17;26.40;;;10.70;99.90;;;;;;5097251;28;20475;-74
2021/03/25 10:30:41;;;;;;;50.88;27.77;;;10.60;99.90;;;;;;5112531;28;20028;-73
2021/03/25 10:33:11;;;;;;;62.30;29.90;;;10.50;99.90;;;;;;5111958;28;20027;-74
2021/03/25 10:35:56;;;;;;;53.45;28.33;;;10.50;99.90;;;;;;5100589;28;20063;-74
2021/03/25 10:38:26;;;;;;;54.22;29.50;;;10.50;99.90;;;;;;5092091;28;20391;-75
2021/03/25 10:40:58;;;;;;;57.67;29.45;;;10.50;99.90;;;;;;5101660;28;20016;-73
2021/03/25 10:43:34;;;;;;;56.75;28.45;;;10.50;99.90;;;;;;5099453;28;20038;-73
2021/03/25 10:46:06;;;;;;;57.90;30.67;;;10.60;99.90;;;;;;5103255;28;20020;-71
2021/03/25 10:48:39;;;;;;;60.38;29.88;;;10.60;99.90;;;;;;5101837;28;20024;-73
2021/03/25 10:51:14;;;;;;;63.60;30.58;;;10.60;99.90;;;;;;5097856;28;20028;-75
2021/03/25 10:53:56;;;;;;;59.05;30.35;;;10.70;99.90;;;;;;5097021;28;20032;-75
2021/03/25 10:56:33;;;;;;;68.03;29.02;;;10.60;99.90;;;;;;5096657;28;20216;-75
2021/03/25 10:59:11;;;;;;;65.35;29.42;;;10.60;99.90;;;;;;5098072;28;20375;-75
2021/03/25 11:01:46;;;;;;;55.03;28.15;;;10.60;99.90;;;;;;5106779;28;20016;-76
2021/03/25 11:04:24;;;;;;;62.63;30.77;;;10.50;99.90;;;;;;5099388;28;20028;-72
2021/03/25 11:06:50;;;;;;;57.20;28.02;;;10.50;99.90;;;;;;5111785;28;20068;-74
2021/03/25 11:09:21;;;;;;;59.83;28.65;;;10.50;99.90;;;;;;5113842;28;20023;-74
2021/03/25 11:12:12;;;;;;;60.85;26.63;;;10.40;99.90;;;;;;5111213;28;20016;-74
2021/03/25 11:14:44;;;;;;;67.75;29.80;;;10.40;99.90;;;;;;5109445;28;20475;-73
2021/03/25 11:17:23;;;;;;;53.03;27.48;;;10.50;99.90;;;;;;5098772;28;20051;-74
2021/03/25 11:19:53;;;;;;;63.00;27.45;;;10.80;99.90;;;;;;5100632;28;20019;-73
2021/03/25 11:22:20;;;;;;;56.42;26.90;;;11.00;99.90;;;;;;5110883;28;20046;-74
2021/03/25 11:24:46;;;;;;;51.15;26.13;;;11.20;99.90;;;;;;5104576;28;20089;-74
2021/03/25 11:27:18;;;;;;;54.78;25.85;;;11.30;99.90;;;;;;5110324;28;20455;-74
2021/03/25 11:29:47;;;;;;;41.17;22.92;;;11.30;99.90;;;;;;5105778;28;20031;-73
2021/03/25 11:32:16;;;;;;;38.40;22.73;;;11.40;99.90;;;;;;5100444;28;20106;-74
2021/03/25 11:34:44;;;;;;;43.17;23.88;;;11.30;99.90;;;;;;5107179;28;20081;-74
2021/03/25 11:37:34;;;;;;;45.10;24.25;;;11.20;99.90;;;;;;5108589;28;20136;-73
2021/03/25 11:40:13;;;;;;;38.83;23.08;;;11.10;99.90;;;;;;5096534;28;20028;-74
2021/03/25 11:42:40;;;;;;;34.60;21.30;;;11.20;99.90;;;;;;5106645;28;20027;-74
2021/03/25 11:45:26;;;;;;;33.10;18.73;;;11.20;99.90;;;;;;5109725;27;20108;-74
2021/03/25 11:47:52;;;;;;;33.70;19.85;;;11.40;99.90;;;;;;5111638;28;20023;-74
2021/03/25 11:50:17;;;;;;;31.70;18.95;;;11.60;99.90;;;;;;5110093;28;20459;-74
2021/03/25 11:52:52;;;;;;;32.72;19.73;;;11.80;99.90;;;;;;5111399;28;20112;-73
2021/03/25 11:55:25;;;;;;;27.58;18.33;;;11.90;99.90;;;;;;5106554;28;20055;-74
2021/03/25 11:57:53;;;;;;;31.35;18.08;;;12.10;99.90;;;;;;5096684;28;20058;-74
2021/03/25 12:00:23;;;;;;;34.20;19.10;;;12.30;99.90;;;;;;5097557;28;20035;-74
2021/03/25 12:02:52;;;;;;;32.63;17.98;;;12.40;99.90;;;;;;5104369;28;20020;-73
2021/03/25 12:05:33;;;;;;;28.13;16.23;;;12.70;99.90;;;;;;5102496;28;20020;-73
2021/03/25 12:08:06;;;;;;;23.38;15.68;;;12.90;99.90;;;;;;5097035;28;20115;-73
2021/03/25 12:10:32;;;;;;;26.63;15.98;;;12.90;99.90;;;;;;5098128;28;20036;-73
2021/03/25 12:12:58;;;;;;;25.00;16.20;;;12.90;99.90;;;;;;5106254;28;20383;-74
2021/03/25 12:15:23;;;;;;;23.25;14.23;;;12.80;99.90;;;;;;5113079;28;20054;-73
2021/03/25 12:17:52;;;;;;;25.00;16.40;;;12.80;99.90;;;;;;5109347;28;20054;-75
2021/03/25 12:20:37;;;;;;;29.67;16.55;;;12.60;99.90;;;;;;5111845;28;20411;-74
2021/03/25 12:23:02;;;;;;;30.98;14.00;;;12.60;99.90;;;;;;5109622;27;20026;-74
2021/03/25 12:25:28;;;;;;;24.38;13.45;;;12.70;99.90;;;;;;5111680;28;20098;-73
2021/03/25 12:27:53;;;;;;;24.95;14.98;;;12.60;99.90;;;;;;5107308;28;20135;-74
2021/03/25 12:30:20;;;;;;;23.45;13.40;;;12.60;99.90;;;;;;5113154;28;20459;-74
2021/03/25 12:32:45;;;;;;;19.92;11.88;;;12.70;99.90;;;;;;5098627;28;20078;-73
2021/03/25 12:35:18;;;;;;;27.27;13.60;;;12.80;99.90;;;;;;5098627;28;20024;-74
2021/03/25 12:37:45;;;;;;;19.00;10.77;;;12.80;99.90;;;;;;5103500;28;20035;-75
2021/03/25 12:40:12;;;;;;;25.02;12.32;;;12.90;99.90;;;;;;5091125;28;20060;-73
2021/03/25 12:42:37;;;;;;;18.38;10.35;;;13.00;99.90;;;;;;5093494;28;20450;-74
2021/03/25 12:45:05;;;;;;;20.25;11.35;;;13.20;99.90;;;;;;5100467;28;20012;-74
2021/03/25 12:47:31;;;;;;;19.45;10.40;;;13.30;99.90;;;;;;5091264;28;20024;-74
2021/03/25 12:49:58;;;;;;;13.10;8.32;;;13.50;99.90;;;;;;5096504;28;20537;-74
2021/03/25 12:52:24;;;;;;;21.05;9.23;;;13.60;99.90;;;;;;5090699;28;20379;-74
2021/03/25 12:54:49;;;;;;;13.55;6.70;;;13.80;99.90;;;;;;5108838;28;20886;-73
2021/03/25 12:57:21;;;;;;;11.43;5.75;;;13.80;99.90;;;;;;5103029;28;20031;-74
2021/03/25 12:59:47;;;;;;;13.80;6.68;;;13.70;99.90;;;;;;5101682;28;20031;-74
2021/03/25 13:02:13;;;;;;;15.23;5.95;;;13.60;99.90;;;;;;5107633;28;20028;-74
2021/03/25 13:04:40;;;;;;;8.27;4.35;;;13.80;99.90;;;;;;5098466;28;20031;-74
2021/03/25 13:07:06;;;;;;;8.80;3.40;;;13.90;99.90;;;;;;5095172;28;20097;-74
2021/03/25 13:09:31;;;;;;;12.10;3.47;;;14.00;98.20;;;;;;5103513;28;20028;-73
2021/03/25 13:12:11;;;;;;;3.75;2.70;;;14.20;96.50;;;;;;5106412;28;20266;-75